sensor_id;sensor_type;location;lat;lon;timestamp;pressure;altitude;pressure_sealevel;temperature;humidity
54816;BME280;40715;55.752;37.884;2023-02-10T00:01:23;100013.84;;;29.41;22.35
54816;BME280;40715;55.752;37.884;2023-02-10T00:03:51;99999.41;;;29.41;22.44
54816;BME280;40715;55.752;37.884;2023-02-10T00:06:19;99990.84;;;29.36;22.10
54816;BME280;40715;55.752;37.884;2023-02-10T00:08:47;99996.28;;;29.36;22.62
54816;BME280;40715;55.752;37.884;2023-02-10T00:11:15;99981.72;;;29.37;22.82
54816;BME280;40715;55.752;37.884;2023-02-10T00:13:43;99974.31;;;29.39;22.47
54816;BME280;40715;55.752;37.884;2023-02-10T00:16:13;99978.41;;;29.43;22.53
54816;BME280;40715;55.752;37.884;2023-02-10T00:18:40;99972.41;;;29.49;22.66
54816;BME280;40715;55.752;37.884;2023-02-10T00:21:14;99975.81;;;29.51;22.81
54816;BME280;40715;55.752;37.884;2023-02-10T00:23:42;99982.19;;;29.60;22.47
54816;BME280;40715;55.752;37.884;2023-02-10T00:26:11;99974.78;;;29.62;21.75
54816;BME280;40715;55.752;37.884;2023-02-10T00:28:38;99972.47;;;29.67;21.75
54816;BME280;40715;55.752;37.884;2023-02-10T00:31:07;99959.19;;;29.64;21.91
54816;BME280;40715;55.752;37.884;2023-02-10T00:33:34;99963.72;;;29.73;22.09
54816;BME280;40715;55.752;37.884;2023-02-10T00:36:12;99948.97;;;29.86;22.38
54816;BME280;40715;55.752;37.884;2023-02-10T00:38:40;99948.41;;;29.82;22.21
54816;BME280;40715;55.752;37.884;2023-02-10T00:41:12;99945.56;;;29.84;22.04
54816;BME280;40715;55.752;37.884;2023-02-10T00:43:39;99942.69;;;29.85;21.94
54816;BME280;40715;55.752;37.884;2023-02-10T00:46:07;99944.72;;;29.83;21.61
54816;BME280;40715;55.752;37.884;2023-02-10T00:48:34;99942.97;;;29.82;22.09
54816;BME280;40715;55.752;37.884;2023-02-10T00:51:02;99929.84;;;29.77;21.79
54816;BME280;40715;55.752;37.884;2023-02-10T00:53:29;99936.13;;;29.78;21.62
54816;BME280;40715;55.752;37.884;2023-02-10T00:55:56;99933.88;;;29.73;21.65
54816;BME280;40715;55.752;37.884;2023-02-10T00:58:23;99918.88;;;29.69;21.83
54816;BME280;40715;55.752;37.884;2023-02-10T01:00:51;99917.16;;;29.68;21.86
54816;BME280;40715;55.752;37.884;2023-02-10T01:03:18;99918.16;;;29.67;22.02
54816;BME280;40715;55.752;37.884;2023-02-10T01:05:45;99913.59;;;29.68;21.93
54816;BME280;40715;55.752;37.884;2023-02-10T01:08:13;99907.06;;;29.60;21.87
54816;BME280;40715;55.752;37.884;2023-02-10T01:10:41;99900.91;;;29.58;21.84
54816;BME280;40715;55.752;37.884;2023-02-10T01:13:10;99899.38;;;29.56;21.62
54816;BME280;40715;55.752;37.884;2023-02-10T01:15:43;99887.66;;;29.55;22.04
54816;BME280;40715;55.752;37.884;2023-02-10T01:18:10;99888.78;;;29.53;21.59
54816;BME280;40715;55.752;37.884;2023-02-10T01:20:39;99887.13;;;29.52;21.90
54816;BME280;40715;55.752;37.884;2023-02-10T01:23:06;99885.25;;;29.52;21.84
54816;BME280;40715;55.752;37.884;2023-02-10T01:25:34;99876.69;;;29.47;21.94
54816;BME280;40715;55.752;37.884;2023-02-10T01:28:02;99880.69;;;29.43;22.04
54816;BME280;40715;55.752;37.884;2023-02-10T01:30:29;99873.59;;;29.42;21.62
54816;BME280;40715;55.752;37.884;2023-02-10T01:32:56;99861.31;;;29.38;21.48
54816;BME280;40715;55.752;37.884;2023-02-10T01:35:23;99851.59;;;29.35;21.80
54816;BME280;40715;55.752;37.884;2023-02-10T01:37:50;99864.19;;;29.36;21.76
54816;BME280;40715;55.752;37.884;2023-02-10T01:40:17;99854.31;;;29.35;21.90
54816;BME280;40715;55.752;37.884;2023-02-10T01:42:44;99859.13;;;29.41;22.11
54816;BME280;40715;55.752;37.884;2023-02-10T01:45:16;99854.59;;;29.42;22.25
54816;BME280;40715;55.752;37.884;2023-02-10T01:47:45;99834.28;;;29.46;22.08
54816;BME280;40715;55.752;37.884;2023-02-10T01:50:15;99835.53;;;29.52;22.23
54816;BME280;40715;55.752;37.884;2023-02-10T01:52:43;99845.63;;;29.59;21.88
54816;BME280;40715;55.752;37.884;2023-02-10T01:55:13;99844.31;;;29.64;22.09
54816;BME280;40715;55.752;37.884;2023-02-10T01:57:43;99850.16;;;29.69;21.81
54816;BME280;40715;55.752;37.884;2023-02-10T02:00:13;99845.09;;;29.74;21.45
54816;BME280;40715;55.752;37.884;2023-02-10T02:02:41;99842.38;;;29.74;21.51
54816;BME280;40715;55.752;37.884;2023-02-10T02:05:29;99833.44;;;29.91;21.07
54816;BME280;40715;55.752;37.884;2023-02-10T02:08:01;99831.59;;;29.92;21.26
54816;BME280;40715;55.752;37.884;2023-02-10T02:27:39;99808.25;;;29.71;21.32
54816;BME280;40715;55.752;37.884;2023-02-10T02:33:47;99792.16;;;29.88;21.14
54816;BME280;40715;55.752;37.884;2023-02-10T02:36:20;99784.03;;;29.60;21.44
54816;BME280;40715;55.752;37.884;2023-02-10T02:38:49;99792.47;;;29.57;21.04
54816;BME280;40715;55.752;37.884;2023-02-10T02:41:24;99778.06;;;29.56;21.35
54816;BME280;40715;55.752;37.884;2023-02-10T02:43:51;99787.38;;;29.54;21.21
54816;BME280;40715;55.752;37.884;2023-02-10T02:46:44;99778.38;;;29.53;22.03
54816;BME280;40715;55.752;37.884;2023-02-10T02:52:24;99764.09;;;29.51;23.04
54816;BME280;40715;55.752;37.884;2023-02-10T02:55:03;99764.72;;;29.45;22.73
54816;BME280;40715;55.752;37.884;2023-02-10T03:00:09;99744.63;;;29.38;23.87
54816;BME280;40715;55.752;37.884;2023-02-10T03:02:38;99741.34;;;29.34;23.83
54816;BME280;40715;55.752;37.884;2023-02-10T03:05:09;99737.09;;;29.32;23.74
54816;BME280;40715;55.752;37.884;2023-02-10T03:07:36;99741.19;;;29.36;24.06
54816;BME280;40715;55.752;37.884;2023-02-10T03:10:04;99745.31;;;29.40;24.25
54816;BME280;40715;55.752;37.884;2023-02-10T03:12:31;99735.84;;;29.44;24.18
54816;BME280;40715;55.752;37.884;2023-02-10T03:14:58;99741.69;;;29.49;23.02
54816;BME280;40715;55.752;37.884;2023-02-10T03:17:24;99738.66;;;29.52;23.76
54816;BME280;40715;55.752;37.884;2023-02-10T03:19:51;99738.34;;;29.55;24.02
54816;BME280;40715;55.752;37.884;2023-02-10T03:22:18;99728.91;;;29.59;23.45
54816;BME280;40715;55.752;37.884;2023-02-10T03:24:45;99721.31;;;29.63;23.44
54816;BME280;40715;55.752;37.884;2023-02-10T03:27:12;99709.25;;;29.66;23.26
54816;BME280;40715;55.752;37.884;2023-02-10T03:29:39;99708.97;;;29.69;22.54
54816;BME280;40715;55.752;37.884;2023-02-10T03:32:06;99702.19;;;29.73;23.33
54816;BME280;40715;55.752;37.884;2023-02-10T03:34:32;99699.34;;;29.74;22.95
54816;BME280;40715;55.752;37.884;2023-02-10T03:37:00;99694.91;;;29.73;23.16
54816;BME280;40715;55.752;37.884;2023-02-10T03:39:27;99681.09;;;29.67;22.83
54816;BME280;40715;55.752;37.884;2023-02-10T03:41:54;99687.25;;;29.69;22.58
54816;BME280;40715;55.752;37.884;2023-02-10T03:44:21;99691.81;;;29.68;22.15
54816;BME280;40715;55.752;37.884;2023-02-10T03:46:47;99676.53;;;29.67;22.86
54816;BME280;40715;55.752;37.884;2023-02-10T03:49:14;99676.84;;;29.64;22.52
54816;BME280;40715;55.752;37.884;2023-02-10T03:51:41;99678.41;;;29.67;21.87
54816;BME280;40715;55.752;37.884;2023-02-10T03:54:08;99665.66;;;29.67;22.77
54816;BME280;40715;55.752;37.884;2023-02-10T03:56:35;99667.00;;;29.63;23.17
54816;BME280;40715;55.752;37.884;2023-02-10T03:59:03;99662.75;;;29.60;22.75
54816;BME280;40715;55.752;37.884;2023-02-10T04:01:31;99660.72;;;29.63;23.18
54816;BME280;40715;55.752;37.884;2023-02-10T04:03:58;99647.63;;;29.58;23.10
54816;BME280;40715;55.752;37.884;2023-02-10T04:06:26;99649.66;;;29.56;23.62
54816;BME280;40715;55.752;37.884;2023-02-10T04:08:52;99639.94;;;29.53;23.67
54816;BME280;40715;55.752;37.884;2023-02-10T04:11:19;99640.09;;;29.52;22.82
54816;BME280;40715;55.752;37.884;2023-02-10T04:13:46;99640.94;;;29.52;23.12
54816;BME280;40715;55.752;37.884;2023-02-10T04:16:15;99636.69;;;29.50;21.93
54816;BME280;40715;55.752;37.884;2023-02-10T04:18:42;99640.78;;;29.54;22.97
54816;BME280;40715;55.752;37.884;2023-02-10T04:21:11;99633.44;;;29.46;23.29
54816;BME280;40715;55.752;37.884;2023-02-10T04:23:38;99636.00;;;29.48;23.51
54816;BME280;40715;55.752;37.884;2023-02-10T04:26:07;99632.41;;;29.47;23.71
54816;BME280;40715;55.752;37.884;2023-02-10T04:28:34;99627.84;;;29.48;22.83
54816;BME280;40715;55.752;37.884;2023-02-10T04:31:01;99622.94;;;29.51;23.18
54816;BME280;40715;55.752;37.884;2023-02-10T04:33:28;99624.34;;;29.55;22.74
54816;BME280;40715;55.752;37.884;2023-02-10T04:35:55;99620.16;;;29.61;23.12
54816;BME280;40715;55.752;37.884;2023-02-10T04:38:23;99619.66;;;29.66;23.25
54816;BME280;40715;55.752;37.884;2023-02-10T04:40:50;99603.09;;;29.69;22.99
54816;BME280;40715;55.752;37.884;2023-02-10T04:43:17;99618.03;;;29.73;23.05
54816;BME280;40715;55.752;37.884;2023-02-10T04:45:44;99604.63;;;29.71;21.96
54816;BME280;40715;55.752;37.884;2023-02-10T04:48:11;99602.44;;;29.75;20.84
54816;BME280;40715;55.752;37.884;2023-02-10T04:50:38;99600.41;;;29.77;21.84
54816;BME280;40715;55.752;37.884;2023-02-10T04:53:06;99609.44;;;29.77;21.62
54816;BME280;40715;55.752;37.884;2023-02-10T04:55:33;99593.97;;;29.78;21.98
54816;BME280;40715;55.752;37.884;2023-02-10T04:58:01;99597.19;;;29.73;22.03
54816;BME280;40715;55.752;37.884;2023-02-10T05:00:27;99593.13;;;29.77;22.50
54816;BME280;40715;55.752;37.884;2023-02-10T05:02:55;99596.84;;;29.76;22.02
54816;BME280;40715;55.752;37.884;2023-02-10T05:05:21;99589.19;;;29.72;22.09
54816;BME280;40715;55.752;37.884;2023-02-10T05:07:52;99587.66;;;29.69;22.34
54816;BME280;40715;55.752;37.884;2023-02-10T05:10:19;99586.09;;;29.67;21.89
54816;BME280;40715;55.752;37.884;2023-02-10T05:12:46;99581.81;;;29.64;21.60
54816;BME280;40715;55.752;37.884;2023-02-10T05:15:13;99580.59;;;29.58;21.81
54816;BME280;40715;55.752;37.884;2023-02-10T05:17:41;99580.91;;;29.55;21.52
54816;BME280;40715;55.752;37.884;2023-02-10T05:20:08;99587.81;;;29.50;21.60
54816;BME280;40715;55.752;37.884;2023-02-10T05:22:36;99585.59;;;29.45;21.98
54816;BME280;40715;55.752;37.884;2023-02-10T05:25:03;99571.63;;;29.40;21.71
54816;BME280;40715;55.752;37.884;2023-02-10T05:27:30;99570.22;;;29.36;21.48
54816;BME280;40715;55.752;37.884;2023-02-10T05:29:57;99545.28;;;29.32;21.56
54816;BME280;40715;55.752;37.884;2023-02-10T05:32:24;99561.19;;;29.27;20.79
54816;BME280;40715;55.752;37.884;2023-02-10T05:34:52;99539.91;;;29.22;20.83
54816;BME280;40715;55.752;37.884;2023-02-10T05:37:18;99538.22;;;29.21;20.75
54816;BME280;40715;55.752;37.884;2023-02-10T05:39:46;99554.81;;;29.18;20.68
54816;BME280;40715;55.752;37.884;2023-02-10T05:42:13;99552.09;;;29.18;20.98
54816;BME280;40715;55.752;37.884;2023-02-10T05:44:40;99552.81;;;29.20;21.28
54816;BME280;40715;55.752;37.884;2023-02-10T05:47:07;99555.06;;;29.25;21.29
54816;BME280;40715;55.752;37.884;2023-02-10T05:49:33;99553.75;;;29.29;21.63
54816;BME280;40715;55.752;37.884;2023-02-10T05:52:00;99566.00;;;29.33;21.82
54816;BME280;40715;55.752;37.884;2023-02-10T05:54:27;99542.81;;;29.39;21.20
54816;BME280;40715;55.752;37.884;2023-02-10T05:56:55;99547.59;;;29.45;21.72
54816;BME280;40715;55.752;37.884;2023-02-10T05:59:22;99544.25;;;29.51;21.29
54816;BME280;40715;55.752;37.884;2023-02-10T06:01:49;99541.91;;;29.56;21.50
54816;BME280;40715;55.752;37.884;2023-02-10T06:04:16;99530.25;;;29.64;21.27
54816;BME280;40715;55.752;37.884;2023-02-10T06:06:43;99536.91;;;29.70;21.12
54816;BME280;40715;55.752;37.884;2023-02-10T06:09:10;99522.16;;;29.72;21.40
54816;BME280;40715;55.752;37.884;2023-02-10T06:11:37;99525.59;;;29.74;21.91
54816;BME280;40715;55.752;37.884;2023-02-10T06:14:04;99517.94;;;29.78;21.73
54816;BME280;40715;55.752;37.884;2023-02-10T06:16:31;99510.66;;;29.78;21.58
54816;BME280;40715;55.752;37.884;2023-02-10T06:18:58;99500.03;;;29.85;20.65
54816;BME280;40715;55.752;37.884;2023-02-10T06:21:26;99504.78;;;29.83;21.08
54816;BME280;40715;55.752;37.884;2023-02-10T06:23:55;99500.19;;;29.84;20.17
54816;BME280;40715;55.752;37.884;2023-02-10T06:26:21;99508.63;;;29.81;21.08
54816;BME280;40715;55.752;37.884;2023-02-10T06:28:48;99511.50;;;29.79;21.28
54816;BME280;40715;55.752;37.884;2023-02-10T06:31:15;99496.94;;;29.80;20.30
54816;BME280;40715;55.752;37.884;2023-02-10T06:33:42;99499.66;;;29.80;20.49
54816;BME280;40715;55.752;37.884;2023-02-10T06:36:10;99485.19;;;29.79;20.23
54816;BME280;40715;55.752;37.884;2023-02-10T06:38:37;99485.78;;;29.83;20.13
54816;BME280;40715;55.752;37.884;2023-02-10T06:41:04;99474.00;;;29.83;19.74
54816;BME280;40715;55.752;37.884;2023-02-10T06:43:32;99462.63;;;29.79;20.49
54816;BME280;40715;55.752;37.884;2023-02-10T06:45:59;99469.78;;;29.80;20.29
54816;BME280;40715;55.752;37.884;2023-02-10T06:48:27;99449.91;;;29.79;20.57
54816;BME280;40715;55.752;37.884;2023-02-10T06:50:54;99467.06;;;29.80;20.33
54816;BME280;40715;55.752;37.884;2023-02-10T06:53:21;99468.75;;;29.81;20.70
54816;BME280;40715;55.752;37.884;2023-02-10T06:55:48;99464.34;;;29.80;20.36
54816;BME280;40715;55.752;37.884;2023-02-10T06:58:15;99449.72;;;29.81;20.18
54816;BME280;40715;55.752;37.884;2023-02-10T07:00:43;99447.34;;;29.78;20.98
54816;BME280;40715;55.752;37.884;2023-02-10T07:03:12;99444.63;;;29.78;21.31
54816;BME280;40715;55.752;37.884;2023-02-10T07:05:41;99422.06;;;29.77;21.66
54816;BME280;40715;55.752;37.884;2023-02-10T07:08:08;99406.13;;;29.83;20.78
54816;BME280;40715;55.752;37.884;2023-02-10T07:10:35;99374.94;;;29.87;19.89
54816;BME280;40715;55.752;37.884;2023-02-10T07:13:02;99384.47;;;29.91;19.42
54816;BME280;40715;55.752;37.884;2023-02-10T07:15:29;99376.53;;;29.98;20.97
54816;BME280;40715;55.752;37.884;2023-02-10T07:17:57;99384.69;;;30.06;21.36
54816;BME280;40715;55.752;37.884;2023-02-10T07:20:25;99365.69;;;30.06;20.93
54816;BME280;40715;55.752;37.884;2023-02-10T07:22:52;99369.25;;;30.15;20.34
54816;BME280;40715;55.752;37.884;2023-02-10T07:25:20;99365.34;;;30.25;20.42
54816;BME280;40715;55.752;37.884;2023-02-10T07:27:47;99363.50;;;30.34;20.51
54816;BME280;40715;55.752;37.884;2023-02-10T07:30:14;99356.06;;;30.44;19.97
54816;BME280;40715;55.752;37.884;2023-02-10T07:32:41;99331.44;;;30.54;18.82
54816;BME280;40715;55.752;37.884;2023-02-10T07:35:08;99334.13;;;30.62;18.61
54816;BME280;40715;55.752;37.884;2023-02-10T07:37:36;99323.09;;;30.72;18.03
54816;BME280;40715;55.752;37.884;2023-02-10T07:40:04;99331.91;;;30.83;18.36
54816;BME280;40715;55.752;37.884;2023-02-10T07:42:31;99327.31;;;30.91;17.96
54816;BME280;40715;55.752;37.884;2023-02-10T07:45:01;99322.38;;;30.95;17.49
54816;BME280;40715;55.752;37.884;2023-02-10T07:47:28;99318.66;;;31.04;17.02
54816;BME280;40715;55.752;37.884;2023-02-10T07:49:55;99316.75;;;31.13;17.50
54816;BME280;40715;55.752;37.884;2023-02-10T07:52:23;99314.66;;;31.23;17.70
54816;BME280;40715;55.752;37.884;2023-02-10T07:54:50;99319.72;;;31.35;17.53
54816;BME280;40715;55.752;37.884;2023-02-10T07:57:17;99311.19;;;31.46;17.28
54816;BME280;40715;55.752;37.884;2023-02-10T07:59:44;99327.47;;;31.54;17.07
54816;BME280;40715;55.752;37.884;2023-02-10T08:02:11;99311.31;;;31.53;16.68
54816;BME280;40715;55.752;37.884;2023-02-10T08:04:38;99301.44;;;31.52;16.56
54816;BME280;40715;55.752;37.884;2023-02-10T08:07:05;99286.31;;;31.49;16.31
54816;BME280;40715;55.752;37.884;2023-02-10T08:09:32;99287.69;;;31.45;16.76
54816;BME280;40715;55.752;37.884;2023-02-10T08:11:59;99282.97;;;31.39;16.25
54816;BME280;40715;55.752;37.884;2023-02-10T08:14:26;99303.41;;;31.35;16.86
54816;BME280;40715;55.752;37.884;2023-02-10T08:16:53;99294.91;;;31.29;16.96
54816;BME280;40715;55.752;37.884;2023-02-10T08:19:20;99300.34;;;31.29;17.04
54816;BME280;40715;55.752;37.884;2023-02-10T08:21:46;99284.53;;;31.33;17.00
54816;BME280;40715;55.752;37.884;2023-02-10T08:24:13;99291.69;;;31.34;16.64
54816;BME280;40715;55.752;37.884;2023-02-10T08:26:41;99295.59;;;31.31;16.52
54816;BME280;40715;55.752;37.884;2023-02-10T08:29:09;99293.22;;;31.28;16.28
54816;BME280;40715;55.752;37.884;2023-02-10T08:31:35;99286.91;;;31.28;16.37
54816;BME280;40715;55.752;37.884;2023-02-10T08:34:02;99292.06;;;31.23;16.50
54816;BME280;40715;55.752;37.884;2023-02-10T08:36:30;99287.81;;;31.20;16.26
54816;BME280;40715;55.752;37.884;2023-02-10T08:38:57;99276.56;;;31.23;16.19
54816;BME280;40715;55.752;37.884;2023-02-10T08:41:24;99274.22;;;31.20;16.80
54816;BME280;40715;55.752;37.884;2023-02-10T08:43:52;99283.56;;;31.18;16.87
54816;BME280;40715;55.752;37.884;2023-02-10T08:46:19;99270.69;;;31.11;16.51
54816;BME280;40715;55.752;37.884;2023-02-10T08:48:46;99269.31;;;31.15;16.99
54816;BME280;40715;55.752;37.884;2023-02-10T08:51:15;99263.19;;;31.13;16.55
54816;BME280;40715;55.752;37.884;2023-02-10T08:53:42;99256.53;;;31.16;17.44
54816;BME280;40715;55.752;37.884;2023-02-10T08:56:11;99247.69;;;31.14;16.85
54816;BME280;40715;55.752;37.884;2023-02-10T08:58:40;99230.84;;;31.19;16.87
54816;BME280;40715;55.752;37.884;2023-02-10T09:01:11;99234.94;;;31.14;17.64
54816;BME280;40715;55.752;37.884;2023-02-10T09:03:40;99251.44;;;31.21;18.15
54816;BME280;40715;55.752;37.884;2023-02-10T09:06:22;99234.34;;;31.36;17.57
54816;BME280;40715;55.752;37.884;2023-02-10T09:08:51;99232.13;;;31.31;17.80
54816;BME280;40715;55.752;37.884;2023-02-10T09:11:20;99225.31;;;31.35;17.42
54816;BME280;40715;55.752;37.884;2023-02-10T09:13:52;99210.50;;;31.38;17.34
54816;BME280;40715;55.752;37.884;2023-02-10T09:16:19;99208.94;;;31.43;17.36
54816;BME280;40715;55.752;37.884;2023-02-10T09:18:46;99204.66;;;31.49;16.55
54816;BME280;40715;55.752;37.884;2023-02-10T09:21:13;99193.94;;;31.47;17.22
54816;BME280;40715;55.752;37.884;2023-02-10T09:23:40;99185.59;;;31.49;16.78
54816;BME280;40715;55.752;37.884;2023-02-10T09:26:09;99180.50;;;31.46;16.46
54816;BME280;40715;55.752;37.884;2023-02-10T09:28:36;99176.94;;;31.45;16.56
54816;BME280;40715;55.752;37.884;2023-02-10T09:31:05;99178.16;;;31.43;17.23
54816;BME280;40715;55.752;37.884;2023-02-10T09:33:32;99164.56;;;31.43;17.69
54816;BME280;40715;55.752;37.884;2023-02-10T09:36:02;99163.22;;;31.39;17.68
54816;BME280;40715;55.752;37.884;2023-02-10T09:38:30;99156.06;;;31.38;17.18
54816;BME280;40715;55.752;37.884;2023-02-10T09:44:22;99143.66;;;31.35;17.34
54816;BME280;40715;55.752;37.884;2023-02-10T09:50:05;99112.75;;;31.28;16.91
54816;BME280;40715;55.752;37.884;2023-02-10T09:53:13;99111.19;;;31.33;16.94
54816;BME280;40715;55.752;37.884;2023-02-10T09:55:48;99108.59;;;31.17;16.52
54816;BME280;40715;55.752;37.884;2023-02-10T09:58:28;99106.47;;;31.04;16.55
54816;BME280;40715;55.752;37.884;2023-02-10T10:01:03;99110.72;;;30.98;17.20
54816;BME280;40715;55.752;37.884;2023-02-10T10:03:42;99107.31;;;30.96;17.56
54816;BME280;40715;55.752;37.884;2023-02-10T10:06:25;99099.00;;;30.90;16.90
54816;BME280;40715;55.752;37.884;2023-02-10T10:11:44;99114.00;;;30.86;17.33
54816;BME280;40715;55.752;37.884;2023-02-10T10:14:31;99123.81;;;30.95;18.87
54816;BME280;40715;55.752;37.884;2023-02-10T10:31:01;99104.19;;;30.76;20.03
54816;BME280;40715;55.752;37.884;2023-02-10T10:36:16;99093.66;;;30.73;20.23
54816;BME280;40715;55.752;37.884;2023-02-10T10:38:49;99092.66;;;30.74;19.54
54816;BME280;40715;55.752;37.884;2023-02-10T10:41:17;99082.63;;;30.75;19.75
54816;BME280;40715;55.752;37.884;2023-02-10T10:43:48;99074.97;;;30.78;20.70
54816;BME280;40715;55.752;37.884;2023-02-10T10:49:06;99059.13;;;30.82;20.70
54816;BME280;40715;55.752;37.884;2023-02-10T10:51:33;99047.22;;;30.83;19.69
54816;BME280;40715;55.752;37.884;2023-02-10T10:54:02;99052.84;;;30.81;20.08
54816;BME280;40715;55.752;37.884;2023-02-10T10:59:03;99044.69;;;30.81;19.47
54816;BME280;40715;55.752;37.884;2023-02-10T11:01:37;99050.50;;;31.71;19.36
54816;BME280;40715;55.752;37.884;2023-02-10T11:04:12;99044.47;;;30.91;20.67
54816;BME280;40715;55.752;37.884;2023-02-10T11:06:40;99034.31;;;30.77;19.69
54816;BME280;40715;55.752;37.884;2023-02-10T11:09:30;99032.09;;;30.80;19.57
54816;BME280;40715;55.752;37.884;2023-02-10T11:12:06;99015.47;;;30.75;19.73
54816;BME280;40715;55.752;37.884;2023-02-10T11:14:43;99023.16;;;30.72;19.50
54816;BME280;40715;55.752;37.884;2023-02-10T11:17:41;99016.81;;;30.79;20.06
54816;BME280;40715;55.752;37.884;2023-02-10T11:22:39;98998.72;;;30.63;19.44
54816;BME280;40715;55.752;37.884;2023-02-10T11:25:30;99003.41;;;30.78;19.01
54816;BME280;40715;55.752;37.884;2023-02-10T11:27:59;98993.66;;;30.60;18.29
54816;BME280;40715;55.752;37.884;2023-02-10T11:30:37;98990.09;;;30.60;19.72
54816;BME280;40715;55.752;37.884;2023-02-10T11:33:06;98988.25;;;30.52;18.72
54816;BME280;40715;55.752;37.884;2023-02-10T11:36:07;98988.00;;;30.70;18.84
54816;BME280;40715;55.752;37.884;2023-02-10T11:38:36;98981.63;;;30.55;18.79
54816;BME280;40715;55.752;37.884;2023-02-10T11:41:06;98973.50;;;30.46;19.10
54816;BME280;40715;55.752;37.884;2023-02-10T11:43:48;98976.19;;;30.55;19.20
54816;BME280;40715;55.752;37.884;2023-02-10T11:46:23;98971.63;;;30.47;18.85
54816;BME280;40715;55.752;37.884;2023-02-10T11:49:00;98970.81;;;30.46;18.47
54816;BME280;40715;55.752;37.884;2023-02-10T11:51:29;98976.91;;;30.49;19.58
54816;BME280;40715;55.752;37.884;2023-02-10T11:53:57;98976.75;;;30.50;19.49
54816;BME280;40715;55.752;37.884;2023-02-10T11:59:36;98973.44;;;30.86;19.88
54816;BME280;40715;55.752;37.884;2023-02-10T12:05:23;98966.44;;;30.69;19.20
54816;BME280;40715;55.752;37.884;2023-02-10T12:11:04;98949.19;;;30.76;19.79
54816;BME280;40715;55.752;37.884;2023-02-10T12:13:55;98937.66;;;30.74;19.13
54816;BME280;40715;55.752;37.884;2023-02-10T12:16:46;98936.88;;;30.89;19.08
54816;BME280;40715;55.752;37.884;2023-02-10T12:22:19;98936.69;;;30.90;17.89
54816;BME280;40715;55.752;37.884;2023-02-10T12:25:26;98914.63;;;30.85;18.28
54816;BME280;40715;55.752;37.884;2023-02-10T12:36:51;98911.09;;;30.61;18.71
54816;BME280;40715;55.752;37.884;2023-02-10T12:53:17;98865.16;;;30.43;18.48
54816;BME280;40715;55.752;37.884;2023-02-10T12:56:02;98873.16;;;30.45;18.65
54816;BME280;40715;55.752;37.884;2023-02-10T12:58:43;98858.91;;;30.35;18.21
54816;BME280;40715;55.752;37.884;2023-02-10T13:01:33;98884.34;;;30.50;18.67
54816;BME280;40715;55.752;37.884;2023-02-10T13:06:48;98886.97;;;30.27;18.49
54816;BME280;40715;55.752;37.884;2023-02-10T13:09:19;98884.53;;;31.10;18.64
54816;BME280;40715;55.752;37.884;2023-02-10T13:12:05;98875.94;;;30.28;18.50
54816;BME280;40715;55.752;37.884;2023-02-10T13:14:35;98888.06;;;30.18;19.50
54816;BME280;40715;55.752;37.884;2023-02-10T13:17:04;98888.53;;;30.21;19.96
54816;BME280;40715;55.752;37.884;2023-02-10T13:19:51;98884.53;;;30.40;20.12
54816;BME280;40715;55.752;37.884;2023-02-10T13:33:25;98857.66;;;30.45;19.29
54816;BME280;40715;55.752;37.884;2023-02-10T13:35:54;98853.94;;;30.46;18.34
54816;BME280;40715;55.752;37.884;2023-02-10T13:38:22;98855.31;;;30.42;18.42
54816;BME280;40715;55.752;37.884;2023-02-10T13:40:54;98849.69;;;30.44;18.60
54816;BME280;40715;55.752;37.884;2023-02-10T13:43:46;98839.50;;;30.46;18.89
54816;BME280;40715;55.752;37.884;2023-02-10T13:46:28;98836.75;;;30.54;18.87
54816;BME280;40715;55.752;37.884;2023-02-10T13:48:59;98841.94;;;30.33;19.46
54816;BME280;40715;55.752;37.884;2023-02-10T13:51:35;98856.50;;;30.40;19.29
54816;BME280;40715;55.752;37.884;2023-02-10T13:54:04;98860.06;;;30.40;19.36
54816;BME280;40715;55.752;37.884;2023-02-10T13:56:33;98859.28;;;30.32;19.38
54816;BME280;40715;55.752;37.884;2023-02-10T14:02:00;98850.63;;;30.28;19.53
54816;BME280;40715;55.752;37.884;2023-02-10T14:04:45;98871.78;;;30.41;19.69
54816;BME280;40715;55.752;37.884;2023-02-10T14:12:28;98872.56;;;30.26;19.44
54816;BME280;40715;55.752;37.884;2023-02-10T14:14:55;98875.50;;;30.17;19.96
54816;BME280;40715;55.752;37.884;2023-02-10T14:17:26;98874.16;;;30.12;19.85
54816;BME280;40715;55.752;37.884;2023-02-10T14:19:58;98859.56;;;30.13;19.62
54816;BME280;40715;55.752;37.884;2023-02-10T14:25:00;98865.22;;;30.04;19.48
54816;BME280;40715;55.752;37.884;2023-02-10T14:27:30;98859.97;;;30.02;19.98
54816;BME280;40715;55.752;37.884;2023-02-10T14:30:21;98851.81;;;30.02;20.28
54816;BME280;40715;55.752;37.884;2023-02-10T14:32:49;98854.06;;;29.99;19.43
54816;BME280;40715;55.752;37.884;2023-02-10T14:35:24;98851.50;;;29.97;20.02
54816;BME280;40715;55.752;37.884;2023-02-10T14:37:57;98849.31;;;29.92;19.61
54816;BME280;40715;55.752;37.884;2023-02-10T14:40:26;98841.00;;;29.94;19.87
54816;BME280;40715;55.752;37.884;2023-02-10T14:42:54;98844.22;;;29.98;19.83
54816;BME280;40715;55.752;37.884;2023-02-10T14:45:24;98853.88;;;30.00;19.82
54816;BME280;40715;55.752;37.884;2023-02-10T14:47:54;98854.34;;;30.04;19.78
54816;BME280;40715;55.752;37.884;2023-02-10T14:50:32;98854.00;;;30.07;19.83
54816;BME280;40715;55.752;37.884;2023-02-10T14:53:01;98848.03;;;30.11;19.80
54816;BME280;40715;55.752;37.884;2023-02-10T14:58:13;98839.34;;;30.16;19.95
54816;BME280;40715;55.752;37.884;2023-02-10T15:01:14;98854.75;;;30.24;19.69
54816;BME280;40715;55.752;37.884;2023-02-10T15:03:39;98857.16;;;30.19;19.57
54816;BME280;40715;55.752;37.884;2023-02-10T15:06:07;98859.56;;;30.13;19.43
54816;BME280;40715;55.752;37.884;2023-02-10T15:11:16;98853.13;;;30.15;19.23